sensor_id;sensor_type;location;lat;lon;timestamp;P1;durP1;ratioP1;P2;durP2;ratioP2
20110;SDS011;10216;42.658;23.248;2023-02-25T00:01:28;32.47;;;21.53;;
20110;SDS011;10216;42.658;23.248;2023-02-25T00:03:56;32.70;;;20.73;;
20110;SDS011;10216;42.658;23.248;2023-02-25T00:06:21;34.97;;;21.87;;
20110;SDS011;10216;42.658;23.248;2023-02-25T00:08:47;35.53;;;21.70;;
20110;SDS011;10216;42.658;23.248;2023-02-25T00:11:13;31.80;;;20.27;;
20110;SDS011;10216;42.658;23.248;2023-02-25T00:13:39;31.73;;;21.43;;
20110;SDS011;10216;42.658;23.248;2023-02-25T00:16:05;33.80;;;20.63;;
20110;SDS011;10216;42.658;23.248;2023-02-25T00:18:31;29.70;;;21.00;;
20110;SDS011;10216;42.658;23.248;2023-02-25T00:20:56;28.20;;;16.93;;
20110;SDS011;10216;42.658;23.248;2023-02-25T00:23:24;31.30;;;19.87;;
20110;SDS011;10216;42.658;23.248;2023-02-25T00:25:56;33.50;;;20.30;;
20110;SDS011;10216;42.658;23.248;2023-02-25T00:28:21;31.47;;;19.90;;
20110;SDS011;10216;42.658;23.248;2023-02-25T00:30:46;33.50;;;21.67;;
20110;SDS011;10216;42.658;23.248;2023-02-25T00:33:12;33.77;;;24.47;;
20110;SDS011;10216;42.658;23.248;2023-02-25T00:35:38;34.60;;;24.37;;
20110;SDS011;10216;42.658;23.248;2023-02-25T00:38:03;34.90;;;21.67;;
20110;SDS011;10216;42.658;23.248;2023-02-25T00:40:32;36.80;;;22.23;;
20110;SDS011;10216;42.658;23.248;2023-02-25T00:42:57;36.47;;;22.77;;
20110;SDS011;10216;42.658;23.248;2023-02-25T00:45:24;36.17;;;22.10;;
20110;SDS011;10216;42.658;23.248;2023-02-25T00:47:49;34.77;;;21.03;;
20110;SDS011;10216;42.658;23.248;2023-02-25T00:50:14;30.20;;;20.47;;
20110;SDS011;10216;42.658;23.248;2023-02-25T00:52:40;35.30;;;21.73;;
20110;SDS011;10216;42.658;23.248;2023-02-25T00:55:05;33.00;;;21.40;;
20110;SDS011;10216;42.658;23.248;2023-02-25T00:57:30;34.87;;;21.47;;
20110;SDS011;10216;42.658;23.248;2023-02-25T00:59:56;35.50;;;21.80;;
20110;SDS011;10216;42.658;23.248;2023-02-25T01:02:21;40.90;;;22.97;;
20110;SDS011;10216;42.658;23.248;2023-02-25T01:04:46;36.93;;;22.57;;
20110;SDS011;10216;42.658;23.248;2023-02-25T01:07:12;36.70;;;22.83;;
20110;SDS011;10216;42.658;23.248;2023-02-25T01:09:37;38.27;;;22.33;;
20110;SDS011;10216;42.658;23.248;2023-02-25T01:12:02;32.93;;;23.27;;
20110;SDS011;10216;42.658;23.248;2023-02-25T01:14:27;37.40;;;23.43;;
20110;SDS011;10216;42.658;23.248;2023-02-25T01:16:53;34.23;;;21.83;;
20110;SDS011;10216;42.658;23.248;2023-02-25T01:19:22;36.97;;;22.87;;
20110;SDS011;10216;42.658;23.248;2023-02-25T01:21:48;34.17;;;22.20;;
20110;SDS011;10216;42.658;23.248;2023-02-25T01:24:18;34.27;;;21.77;;
20110;SDS011;10216;42.658;23.248;2023-02-25T01:26:47;36.57;;;22.83;;
20110;SDS011;10216;42.658;23.248;2023-02-25T01:29:14;44.70;;;23.43;;
20110;SDS011;10216;42.658;23.248;2023-02-25T01:31:40;41.03;;;22.90;;
20110;SDS011;10216;42.658;23.248;2023-02-25T01:34:06;36.33;;;22.80;;
20110;SDS011;10216;42.658;23.248;2023-02-25T01:36:32;33.20;;;22.90;;
20110;SDS011;10216;42.658;23.248;2023-02-25T01:38:58;36.13;;;22.10;;
20110;SDS011;10216;42.658;23.248;2023-02-25T01:41:23;37.80;;;23.43;;
20110;SDS011;10216;42.658;23.248;2023-02-25T01:44:02;40.33;;;25.10;;
20110;SDS011;10216;42.658;23.248;2023-02-25T01:46:29;40.20;;;24.50;;
20110;SDS011;10216;42.658;23.248;2023-02-25T01:48:54;36.37;;;22.83;;
20110;SDS011;10216;42.658;23.248;2023-02-25T01:51:21;49.53;;;33.20;;
20110;SDS011;10216;42.658;23.248;2023-02-25T01:53:49;42.67;;;28.03;;
20110;SDS011;10216;42.658;23.248;2023-02-25T01:56:16;41.80;;;28.77;;
20110;SDS011;10216;42.658;23.248;2023-02-25T01:58:42;42.93;;;28.97;;
20110;SDS011;10216;42.658;23.248;2023-02-25T02:01:11;48.57;;;31.33;;
20110;SDS011;10216;42.658;23.248;2023-02-25T02:03:36;35.93;;;23.53;;
20110;SDS011;10216;42.658;23.248;2023-02-25T02:06:06;38.53;;;21.00;;
20110;SDS011;10216;42.658;23.248;2023-02-25T02:08:32;35.57;;;22.57;;
20110;SDS011;10216;42.658;23.248;2023-02-25T02:10:58;35.70;;;22.77;;
20110;SDS011;10216;42.658;23.248;2023-02-25T02:13:23;35.97;;;21.63;;
20110;SDS011;10216;42.658;23.248;2023-02-25T02:18:33;36.90;;;23.37;;
20110;SDS011;10216;42.658;23.248;2023-02-25T02:21:07;53.33;;;27.87;;
20110;SDS011;10216;42.658;23.248;2023-02-25T02:23:44;35.70;;;22.63;;
20110;SDS011;10216;42.658;23.248;2023-02-25T02:26:20;35.83;;;21.77;;
20110;SDS011;10216;42.658;23.248;2023-02-25T02:34:26;33.13;;;20.33;;
20110;SDS011;10216;42.658;23.248;2023-02-25T02:44:56;30.30;;;18.20;;
20110;SDS011;10216;42.658;23.248;2023-02-25T02:47:32;29.07;;;17.90;;
20110;SDS011;10216;42.658;23.248;2023-02-25T02:50:07;30.80;;;18.33;;
20110;SDS011;10216;42.658;23.248;2023-02-25T02:52:34;34.03;;;19.07;;
20110;SDS011;10216;42.658;23.248;2023-02-25T02:55:03;33.40;;;18.83;;
20110;SDS011;10216;42.658;23.248;2023-02-25T02:57:32;33.20;;;19.50;;
20110;SDS011;10216;42.658;23.248;2023-02-25T02:59:59;30.40;;;19.07;;
20110;SDS011;10216;42.658;23.248;2023-02-25T03:02:27;31.73;;;19.33;;
20110;SDS011;10216;42.658;23.248;2023-02-25T03:04:55;32.27;;;18.53;;
20110;SDS011;10216;42.658;23.248;2023-02-25T03:07:22;34.37;;;19.47;;
20110;SDS011;10216;42.658;23.248;2023-02-25T03:09:49;34.27;;;20.10;;
20110;SDS011;10216;42.658;23.248;2023-02-25T03:12:16;28.47;;;19.10;;
20110;SDS011;10216;42.658;23.248;2023-02-25T03:14:41;37.90;;;20.37;;
20110;SDS011;10216;42.658;23.248;2023-02-25T03:17:11;40.20;;;20.87;;
20110;SDS011;10216;42.658;23.248;2023-02-25T03:19:39;30.83;;;19.17;;
20110;SDS011;10216;42.658;23.248;2023-02-25T03:22:06;31.77;;;19.23;;
20110;SDS011;10216;42.658;23.248;2023-02-25T03:24:41;38.30;;;20.13;;
20110;SDS011;10216;42.658;23.248;2023-02-25T03:27:21;37.03;;;20.37;;
20110;SDS011;10216;42.658;23.248;2023-02-25T03:29:47;31.63;;;19.13;;
20110;SDS011;10216;42.658;23.248;2023-02-25T03:32:12;32.80;;;20.40;;
20110;SDS011;10216;42.658;23.248;2023-02-25T03:34:41;34.73;;;20.43;;
20110;SDS011;10216;42.658;23.248;2023-02-25T03:37:12;34.90;;;19.63;;
20110;SDS011;10216;42.658;23.248;2023-02-25T03:39:38;40.67;;;21.03;;
20110;SDS011;10216;42.658;23.248;2023-02-25T03:42:07;29.63;;;18.80;;
20110;SDS011;10216;42.658;23.248;2023-02-25T03:44:37;34.60;;;21.20;;
20110;SDS011;10216;42.658;23.248;2023-02-25T03:47:03;46.20;;;26.07;;
20110;SDS011;10216;42.658;23.248;2023-02-25T03:49:31;42.90;;;21.97;;
20110;SDS011;10216;42.658;23.248;2023-02-25T03:51:58;45.53;;;24.97;;
20110;SDS011;10216;42.658;23.248;2023-02-25T03:54:23;54.40;;;31.03;;
20110;SDS011;10216;42.658;23.248;2023-02-25T03:56:49;40.87;;;22.97;;
20110;SDS011;10216;42.658;23.248;2023-02-25T03:59:15;35.17;;;20.27;;
20110;SDS011;10216;42.658;23.248;2023-02-25T04:01:41;37.43;;;21.33;;
20110;SDS011;10216;42.658;23.248;2023-02-25T04:04:07;39.00;;;20.13;;
20110;SDS011;10216;42.658;23.248;2023-02-25T04:06:33;32.10;;;18.27;;
20110;SDS011;10216;42.658;23.248;2023-02-25T04:08:58;34.17;;;19.93;;
20110;SDS011;10216;42.658;23.248;2023-02-25T04:11:23;34.73;;;19.00;;
20110;SDS011;10216;42.658;23.248;2023-02-25T04:13:51;32.80;;;19.17;;
20110;SDS011;10216;42.658;23.248;2023-02-25T04:16:16;33.27;;;19.03;;
20110;SDS011;10216;42.658;23.248;2023-02-25T04:18:44;35.67;;;18.80;;
20110;SDS011;10216;42.658;23.248;2023-02-25T04:21:20;30.43;;;18.47;;
20110;SDS011;10216;42.658;23.248;2023-02-25T04:23:46;32.77;;;18.90;;
20110;SDS011;10216;42.658;23.248;2023-02-25T04:26:11;35.20;;;18.87;;
20110;SDS011;10216;42.658;23.248;2023-02-25T04:28:37;31.97;;;19.03;;
20110;SDS011;10216;42.658;23.248;2023-02-25T04:31:02;32.00;;;18.87;;
20110;SDS011;10216;42.658;23.248;2023-02-25T04:33:27;28.20;;;17.53;;
20110;SDS011;10216;42.658;23.248;2023-02-25T04:35:53;31.90;;;18.23;;
20110;SDS011;10216;42.658;23.248;2023-02-25T04:38:18;32.90;;;19.67;;
20110;SDS011;10216;42.658;23.248;2023-02-25T04:40:43;36.77;;;18.57;;
20110;SDS011;10216;42.658;23.248;2023-02-25T04:43:08;28.13;;;17.27;;
20110;SDS011;10216;42.658;23.248;2023-02-25T04:45:34;32.87;;;20.10;;
20110;SDS011;10216;42.658;23.248;2023-02-25T04:47:59;34.83;;;18.97;;
20110;SDS011;10216;42.658;23.248;2023-02-25T04:50:24;35.47;;;19.50;;
20110;SDS011;10216;42.658;23.248;2023-02-25T04:52:50;29.03;;;18.80;;
20110;SDS011;10216;42.658;23.248;2023-02-25T04:55:17;35.83;;;19.40;;
20110;SDS011;10216;42.658;23.248;2023-02-25T04:57:43;31.67;;;18.70;;
20110;SDS011;10216;42.658;23.248;2023-02-25T05:00:18;35.83;;;21.13;;
20110;SDS011;10216;42.658;23.248;2023-02-25T05:02:44;33.73;;;18.97;;
20110;SDS011;10216;42.658;23.248;2023-02-25T05:05:10;35.07;;;19.73;;
20110;SDS011;10216;42.658;23.248;2023-02-25T05:07:35;29.50;;;19.27;;
20110;SDS011;10216;42.658;23.248;2023-02-25T05:10:01;35.17;;;20.63;;
20110;SDS011;10216;42.658;23.248;2023-02-25T05:12:26;35.23;;;19.40;;
20110;SDS011;10216;42.658;23.248;2023-02-25T05:14:51;40.20;;;19.33;;
20110;SDS011;10216;42.658;23.248;2023-02-25T05:17:16;30.20;;;19.03;;
20110;SDS011;10216;42.658;23.248;2023-02-25T05:19:43;39.60;;;19.07;;
20110;SDS011;10216;42.658;23.248;2023-02-25T05:22:08;32.07;;;18.77;;
20110;SDS011;10216;42.658;23.248;2023-02-25T05:24:33;31.70;;;17.77;;
20110;SDS011;10216;42.658;23.248;2023-02-25T05:26:58;30.77;;;17.97;;
20110;SDS011;10216;42.658;23.248;2023-02-25T05:29:28;30.00;;;17.00;;
20110;SDS011;10216;42.658;23.248;2023-02-25T05:31:53;30.33;;;18.33;;
20110;SDS011;10216;42.658;23.248;2023-02-25T05:34:19;31.23;;;18.63;;
20110;SDS011;10216;42.658;23.248;2023-02-25T05:36:46;28.73;;;17.47;;
20110;SDS011;10216;42.658;23.248;2023-02-25T05:39:12;36.33;;;17.37;;
20110;SDS011;10216;42.658;23.248;2023-02-25T05:41:37;37.63;;;19.97;;
20110;SDS011;10216;42.658;23.248;2023-02-25T05:44:02;37.60;;;23.40;;
20110;SDS011;10216;42.658;23.248;2023-02-25T05:46:28;30.63;;;19.37;;
20110;SDS011;10216;42.658;23.248;2023-02-25T05:48:53;36.57;;;20.63;;
20110;SDS011;10216;42.658;23.248;2023-02-25T05:51:19;33.33;;;20.53;;
20110;SDS011;10216;42.658;23.248;2023-02-25T05:53:47;37.47;;;21.77;;
20110;SDS011;10216;42.658;23.248;2023-02-25T05:56:14;43.53;;;21.80;;
20110;SDS011;10216;42.658;23.248;2023-02-25T05:58:39;37.63;;;22.83;;
20110;SDS011;10216;42.658;23.248;2023-02-25T06:01:05;36.70;;;21.20;;
20110;SDS011;10216;42.658;23.248;2023-02-25T06:03:34;40.33;;;23.23;;
20110;SDS011;10216;42.658;23.248;2023-02-25T06:06:00;47.23;;;25.70;;
20110;SDS011;10216;42.658;23.248;2023-02-25T06:08:26;36.40;;;22.37;;
20110;SDS011;10216;42.658;23.248;2023-02-25T06:10:51;40.03;;;24.10;;
20110;SDS011;10216;42.658;23.248;2023-02-25T06:13:17;32.73;;;19.87;;
20110;SDS011;10216;42.658;23.248;2023-02-25T06:15:42;59.70;;;33.90;;
20110;SDS011;10216;42.658;23.248;2023-02-25T06:18:08;35.80;;;21.53;;
20110;SDS011;10216;42.658;23.248;2023-02-25T06:20:33;56.17;;;32.60;;
20110;SDS011;10216;42.658;23.248;2023-02-25T06:22:59;38.90;;;22.47;;
20110;SDS011;10216;42.658;23.248;2023-02-25T06:25:25;45.40;;;25.77;;
20110;SDS011;10216;42.658;23.248;2023-02-25T06:27:54;31.80;;;20.13;;
20110;SDS011;10216;42.658;23.248;2023-02-25T06:30:19;37.20;;;22.83;;
20110;SDS011;10216;42.658;23.248;2023-02-25T06:32:44;33.30;;;18.93;;
20110;SDS011;10216;42.658;23.248;2023-02-25T06:35:10;55.60;;;26.50;;
20110;SDS011;10216;42.658;23.248;2023-02-25T06:37:35;52.03;;;28.47;;
20110;SDS011;10216;42.658;23.248;2023-02-25T06:40:00;40.67;;;24.27;;
20110;SDS011;10216;42.658;23.248;2023-02-25T06:42:25;35.47;;;20.53;;
20110;SDS011;10216;42.658;23.248;2023-02-25T06:44:51;35.77;;;20.83;;
20110;SDS011;10216;42.658;23.248;2023-02-25T06:47:16;31.97;;;19.67;;
20110;SDS011;10216;42.658;23.248;2023-02-25T06:49:41;33.03;;;20.63;;
20110;SDS011;10216;42.658;23.248;2023-02-25T06:52:06;29.07;;;20.30;;
20110;SDS011;10216;42.658;23.248;2023-02-25T06:54:32;31.93;;;19.60;;
20110;SDS011;10216;42.658;23.248;2023-02-25T06:56:57;28.73;;;20.00;;
20110;SDS011;10216;42.658;23.248;2023-02-25T06:59:24;27.20;;;18.97;;
20110;SDS011;10216;42.658;23.248;2023-02-25T07:01:49;33.97;;;20.80;;
20110;SDS011;10216;42.658;23.248;2023-02-25T07:04:15;37.40;;;21.07;;
20110;SDS011;10216;42.658;23.248;2023-02-25T07:06:41;35.77;;;20.03;;
20110;SDS011;10216;42.658;23.248;2023-02-25T07:09:06;31.73;;;20.00;;
20110;SDS011;10216;42.658;23.248;2023-02-25T07:11:32;40.20;;;20.40;;
20110;SDS011;10216;42.658;23.248;2023-02-25T07:13:59;32.53;;;18.73;;
20110;SDS011;10216;42.658;23.248;2023-02-25T07:16:24;28.93;;;19.47;;
20110;SDS011;10216;42.658;23.248;2023-02-25T07:18:50;30.70;;;18.23;;
20110;SDS011;10216;42.658;23.248;2023-02-25T07:21:15;29.00;;;17.33;;
20110;SDS011;10216;42.658;23.248;2023-02-25T07:23:41;31.43;;;17.23;;
20110;SDS011;10216;42.658;23.248;2023-02-25T07:26:08;34.00;;;18.73;;
20110;SDS011;10216;42.658;23.248;2023-02-25T07:28:33;34.53;;;18.00;;
20110;SDS011;10216;42.658;23.248;2023-02-25T07:30:59;31.13;;;18.70;;
20110;SDS011;10216;42.658;23.248;2023-02-25T07:33:25;32.00;;;18.23;;
20110;SDS011;10216;42.658;23.248;2023-02-25T07:35:52;39.33;;;23.20;;
20110;SDS011;10216;42.658;23.248;2023-02-25T07:38:18;97.80;;;59.67;;
20110;SDS011;10216;42.658;23.248;2023-02-25T07:40:43;38.67;;;23.20;;
20110;SDS011;10216;42.658;23.248;2023-02-25T07:43:08;28.97;;;17.80;;
20110;SDS011;10216;42.658;23.248;2023-02-25T07:45:33;30.43;;;16.30;;
20110;SDS011;10216;42.658;23.248;2023-02-25T07:47:59;36.00;;;17.83;;
20110;SDS011;10216;42.658;23.248;2023-02-25T07:50:24;36.93;;;20.23;;
20110;SDS011;10216;42.658;23.248;2023-02-25T07:52:49;27.23;;;15.83;;
20110;SDS011;10216;42.658;23.248;2023-02-25T07:55:14;29.43;;;16.60;;
20110;SDS011;10216;42.658;23.248;2023-02-25T07:57:40;32.63;;;15.40;;
20110;SDS011;10216;42.658;23.248;2023-02-25T08:00:05;28.30;;;15.40;;
20110;SDS011;10216;42.658;23.248;2023-02-25T08:02:34;26.30;;;16.17;;
20110;SDS011;10216;42.658;23.248;2023-02-25T08:04:59;25.77;;;14.40;;
20110;SDS011;10216;42.658;23.248;2023-02-25T08:07:25;30.83;;;17.53;;
20110;SDS011;10216;42.658;23.248;2023-02-25T08:09:50;23.63;;;15.50;;
20110;SDS011;10216;42.658;23.248;2023-02-25T08:12:15;29.47;;;16.87;;
20110;SDS011;10216;42.658;23.248;2023-02-25T08:14:40;25.53;;;16.20;;
20110;SDS011;10216;42.658;23.248;2023-02-25T08:17:06;45.57;;;22.10;;
20110;SDS011;10216;42.658;23.248;2023-02-25T08:19:31;31.50;;;16.37;;
20110;SDS011;10216;42.658;23.248;2023-02-25T08:21:56;31.33;;;15.63;;
20110;SDS011;10216;42.658;23.248;2023-02-25T08:24:21;29.90;;;17.17;;
20110;SDS011;10216;42.658;23.248;2023-02-25T08:26:47;30.23;;;15.73;;
20110;SDS011;10216;42.658;23.248;2023-02-25T08:29:12;29.30;;;15.90;;
20110;SDS011;10216;42.658;23.248;2023-02-25T08:31:38;25.67;;;16.17;;
20110;SDS011;10216;42.658;23.248;2023-02-25T08:34:03;31.03;;;18.33;;
20110;SDS011;10216;42.658;23.248;2023-02-25T08:36:29;35.53;;;18.77;;
20110;SDS011;10216;42.658;23.248;2023-02-25T08:38:55;31.87;;;17.87;;
20110;SDS011;10216;42.658;23.248;2023-02-25T08:41:24;32.43;;;15.77;;
20110;SDS011;10216;42.658;23.248;2023-02-25T08:43:50;29.27;;;15.00;;
20110;SDS011;10216;42.658;23.248;2023-02-25T08:46:18;32.97;;;18.23;;
20110;SDS011;10216;42.658;23.248;2023-02-25T08:48:43;27.50;;;14.43;;
20110;SDS011;10216;42.658;23.248;2023-02-25T08:51:09;39.30;;;16.90;;
20110;SDS011;10216;42.658;23.248;2023-02-25T08:53:35;25.67;;;14.93;;
20110;SDS011;10216;42.658;23.248;2023-02-25T08:56:01;32.97;;;15.20;;
20110;SDS011;10216;42.658;23.248;2023-02-25T08:58:28;29.73;;;15.13;;
20110;SDS011;10216;42.658;23.248;2023-02-25T09:00:53;29.23;;;14.87;;
20110;SDS011;10216;42.658;23.248;2023-02-25T09:03:19;30.43;;;15.10;;
20110;SDS011;10216;42.658;23.248;2023-02-25T09:05:49;22.37;;;14.60;;
20110;SDS011;10216;42.658;23.248;2023-02-25T09:08:14;27.07;;;14.77;;
20110;SDS011;10216;42.658;23.248;2023-02-25T09:10:39;27.37;;;14.13;;
20110;SDS011;10216;42.658;23.248;2023-02-25T09:13:05;33.40;;;16.83;;
20110;SDS011;10216;42.658;23.248;2023-02-25T09:15:30;35.47;;;17.03;;
20110;SDS011;10216;42.658;23.248;2023-02-25T09:17:56;29.20;;;18.43;;
20110;SDS011;10216;42.658;23.248;2023-02-25T09:20:21;31.77;;;16.87;;
20110;SDS011;10216;42.658;23.248;2023-02-25T09:22:49;34.83;;;16.37;;
20110;SDS011;10216;42.658;23.248;2023-02-25T09:25:15;20.73;;;7.80;;
20110;SDS011;10216;42.658;23.248;2023-02-25T09:27:40;17.70;;;6.67;;
20110;SDS011;10216;42.658;23.248;2023-02-25T09:30:06;20.47;;;4.77;;
20110;SDS011;10216;42.658;23.248;2023-02-25T09:32:31;24.90;;;4.83;;
20110;SDS011;10216;42.658;23.248;2023-02-25T09:34:56;16.97;;;4.80;;
20110;SDS011;10216;42.658;23.248;2023-02-25T09:37:22;22.90;;;4.93;;
20110;SDS011;10216;42.658;23.248;2023-02-25T09:39:47;20.43;;;4.90;;
20110;SDS011;10216;42.658;23.248;2023-02-25T09:42:15;25.97;;;6.03;;
20110;SDS011;10216;42.658;23.248;2023-02-25T09:49:36;18.47;;;4.53;;
20110;SDS011;10216;42.658;23.248;2023-02-25T09:54:32;19.57;;;5.47;;
20110;SDS011;10216;42.658;23.248;2023-02-25T09:57:00;17.23;;;4.90;;
20110;SDS011;10216;42.658;23.248;2023-02-25T09:59:26;21.03;;;6.43;;
20110;SDS011;10216;42.658;23.248;2023-02-25T10:01:54;17.83;;;5.23;;
20110;SDS011;10216;42.658;23.248;2023-02-25T10:07:12;15.80;;;4.50;;
20110;SDS011;10216;42.658;23.248;2023-02-25T10:25:28;17.57;;;4.70;;
20110;SDS011;10216;42.658;23.248;2023-02-25T10:30:27;12.07;;;3.87;;
20110;SDS011;10216;42.658;23.248;2023-02-25T10:32:56;16.47;;;4.83;;
20110;SDS011;10216;42.658;23.248;2023-02-25T10:35:25;17.50;;;4.37;;
20110;SDS011;10216;42.658;23.248;2023-02-25T10:37:51;17.33;;;4.60;;
20110;SDS011;10216;42.658;23.248;2023-02-25T10:40:18;15.93;;;4.00;;
20110;SDS011;10216;42.658;23.248;2023-02-25T10:42:47;15.80;;;4.10;;
20110;SDS011;10216;42.658;23.248;2023-02-25T10:45:19;20.83;;;4.70;;
20110;SDS011;10216;42.658;23.248;2023-02-25T10:47:46;22.57;;;4.33;;
20110;SDS011;10216;42.658;23.248;2023-02-25T10:58:02;17.53;;;4.60;;
20110;SDS011;10216;42.658;23.248;2023-02-25T11:00:29;14.90;;;4.80;;
20110;SDS011;10216;42.658;23.248;2023-02-25T11:02:56;16.73;;;4.13;;
20110;SDS011;10216;42.658;23.248;2023-02-25T11:05:36;19.83;;;5.60;;
20110;SDS011;10216;42.658;23.248;2023-02-25T11:08:02;15.03;;;4.57;;
20110;SDS011;10216;42.658;23.248;2023-02-25T11:10:31;13.73;;;4.50;;
20110;SDS011;10216;42.658;23.248;2023-02-25T11:12:57;12.83;;;3.60;;
20110;SDS011;10216;42.658;23.248;2023-02-25T11:17:51;18.67;;;5.23;;
20110;SDS011;10216;42.658;23.248;2023-02-25T11:20:20;21.50;;;4.77;;
20110;SDS011;10216;42.658;23.248;2023-02-25T11:22:46;13.97;;;3.70;;
20110;SDS011;10216;42.658;23.248;2023-02-25T11:25:15;16.10;;;4.80;;
20110;SDS011;10216;42.658;23.248;2023-02-25T11:27:42;18.37;;;4.73;;
20110;SDS011;10216;42.658;23.248;2023-02-25T11:32:43;19.77;;;4.73;;
20110;SDS011;10216;42.658;23.248;2023-02-25T11:35:16;17.23;;;4.70;;
20110;SDS011;10216;42.658;23.248;2023-02-25T11:37:43;19.80;;;4.80;;
20110;SDS011;10216;42.658;23.248;2023-02-25T11:43:13;13.77;;;4.37;;
20110;SDS011;10216;42.658;23.248;2023-02-25T11:45:58;17.90;;;4.90;;
20110;SDS011;10216;42.658;23.248;2023-02-25T11:48:33;13.90;;;4.80;;
20110;SDS011;10216;42.658;23.248;2023-02-25T11:53:40;17.93;;;5.07;;
20110;SDS011;10216;42.658;23.248;2023-02-25T11:56:20;16.33;;;3.43;;
20110;SDS011;10216;42.658;23.248;2023-02-25T12:02:00;17.03;;;4.80;;
20110;SDS011;10216;42.658;23.248;2023-02-25T12:38:11;14.27;;;5.03;;
20110;SDS011;10216;42.658;23.248;2023-02-25T12:40:40;18.97;;;5.60;;
20110;SDS011;10216;42.658;23.248;2023-02-25T13:01:11;10.60;;;4.53;;
20110;SDS011;10216;42.658;23.248;2023-02-25T13:03:44;12.80;;;5.47;;
20110;SDS011;10216;42.658;23.248;2023-02-25T13:11:42;19.53;;;5.27;;
20110;SDS011;10216;42.658;23.248;2023-02-25T13:26:54;11.70;;;4.40;;
20110;SDS011;10216;42.658;23.248;2023-02-25T13:32:15;18.60;;;4.70;;
20110;SDS011;10216;42.658;23.248;2023-02-25T13:42:26;18.33;;;3.90;;
20110;SDS011;10216;42.658;23.248;2023-02-25T13:45:11;13.00;;;3.83;;
20110;SDS011;10216;42.658;23.248;2023-02-25T13:53:03;18.70;;;4.77;;
20110;SDS011;10216;42.658;23.248;2023-02-25T14:00:33;11.90;;;3.23;;
20110;SDS011;10216;42.658;23.248;2023-02-25T14:05:57;10.53;;;5.10;;
20110;SDS011;10216;42.658;23.248;2023-02-25T14:29:01;17.90;;;5.60;;
20110;SDS011;10216;42.658;23.248;2023-02-25T14:31:37;20.07;;;5.07;;
20110;SDS011;10216;42.658;23.248;2023-02-25T14:36:56;9.73;;;3.47;;
20110;SDS011;10216;42.658;23.248;2023-02-25T14:42:02;16.07;;;4.83;;
20110;SDS011;10216;42.658;23.248;2023-02-25T14:44:31;15.73;;;5.13;;
20110;SDS011;10216;42.658;23.248;2023-02-25T14:46:59;19.67;;;5.27;;
20110;SDS011;10216;42.658;23.248;2023-02-25T15:08:35;18.47;;;4.60;;
20110;SDS011;10216;42.658;23.248;2023-02-25T15:23:52;16.77;;;5.27;;
20110;SDS011;10216;42.658;23.248;2023-02-25T15:29:02;10.27;;;3.97;;
20110;SDS011;10216;42.658;23.248;2023-02-25T15:34:07;15.93;;;5.40;;
20110;SDS011;10216;42.658;23.248;2023-02-25T15:36:40;14.97;;;4.63;;
20110;SDS011;10216;42.658;23.248;2023-02-25T15:39:06;14.70;;;5.17;;
20110;SDS011;10216;42.658;23.248;2023-02-25T15:46:40;15.00;;;5.03;;
20110;SDS011;10216;42.658;23.248;2023-02-25T15:51:56;18.33;;;5.23;;
20110;SDS011;10216;42.658;23.248;2023-02-25T15:56:54;12.30;;;4.77;;
20110;SDS011;10216;42.658;23.248;2023-02-25T15:59:40;23.33;;;5.80;;
20110;SDS011;10216;42.658;23.248;2023-02-25T16:02:51;19.30;;;4.60;;
20110;SDS011;10216;42.658;23.248;2023-02-25T16:07:59;18.80;;;5.30;;
20110;SDS011;10216;42.658;23.248;2023-02-25T16:10:25;19.77;;;5.30;;
20110;SDS011;10216;42.658;23.248;2023-02-25T16:12:52;13.77;;;4.97;;
20110;SDS011;10216;42.658;23.248;2023-02-25T16:17:56;16.00;;;4.37;;
20110;SDS011;10216;42.658;23.248;2023-02-25T16:20:31;13.30;;;4.57;;
20110;SDS011;10216;42.658;23.248;2023-02-25T16:23:00;16.47;;;5.03;;
20110;SDS011;10216;42.658;23.248;2023-02-25T16:30:47;13.20;;;4.40;;
20110;SDS011;10216;42.658;23.248;2023-02-25T16:33:38;11.70;;;4.87;;
20110;SDS011;10216;42.658;23.248;2023-02-25T16:36:17;14.37;;;4.97;;
20110;SDS011;10216;42.658;23.248;2023-02-25T16:38:45;20.77;;;5.07;;
20110;SDS011;10216;42.658;23.248;2023-02-25T16:41:11;15.03;;;5.07;;
20110;SDS011;10216;42.658;23.248;2023-02-25T16:43:38;15.00;;;4.90;;
20110;SDS011;10216;42.658;23.248;2023-02-25T16:46:05;16.50;;;5.37;;
20110;SDS011;10216;42.658;23.248;2023-02-25T16:48:31;18.40;;;5.67;;
20110;SDS011;10216;42.658;23.248;2023-02-25T16:51:06;18.10;;;5.30;;
20110;SDS011;10216;42.658;23.248;2023-02-25T16:53:32;16.60;;;4.23;;
20110;SDS011;10216;42.658;23.248;2023-02-25T16:55:57;14.33;;;4.43;;
20110;SDS011;10216;42.658;23.248;2023-02-25T16:58:24;16.27;;;5.53;;
20110;SDS011;10216;42.658;23.248;2023-02-25T17:00:51;16.77;;;5.70;;
20110;SDS011;10216;42.658;23.248;2023-02-25T17:03:17;20.80;;;6.10;;
20110;SDS011;10216;42.658;23.248;2023-02-25T17:05:43;19.23;;;5.60;;
20110;SDS011;10216;42.658;23.248;2023-02-25T17:08:15;19.40;;;5.83;;
20110;SDS011;10216;42.658;23.248;2023-02-25T17:10:45;14.77;;;5.60;;
20110;SDS011;10216;42.658;23.248;2023-02-25T17:15:55;12.07;;;5.00;;
20110;SDS011;10216;42.658;23.248;2023-02-25T17:20:49;18.33;;;5.10;;
20110;SDS011;10216;42.658;23.248;2023-02-25T17:23:14;15.57;;;5.57;;
20110;SDS011;10216;42.658;23.248;2023-02-25T17:25:42;17.93;;;5.13;;
20110;SDS011;10216;42.658;23.248;2023-02-25T17:28:14;15.20;;;5.70;;
20110;SDS011;10216;42.658;23.248;2023-02-25T17:30:42;15.00;;;5.47;;
20110;SDS011;10216;42.658;23.248;2023-02-25T17:33:29;12.33;;;5.33;;
20110;SDS011;10216;42.658;23.248;2023-02-25T17:36:02;12.77;;;5.13;;
20110;SDS011;10216;42.658;23.248;2023-02-25T17:38:28;11.90;;;5.30;;
20110;SDS011;10216;42.658;23.248;2023-02-25T17:40:54;14.83;;;4.93;;
20110;SDS011;10216;42.658;23.248;2023-02-25T17:43:23;18.73;;;5.63;;
20110;SDS011;10216;42.658;23.248;2023-02-25T17:48:19;17.77;;;5.60;;
20110;SDS011;10216;42.658;23.248;2023-02-25T17:51:06;12.47;;;4.73;;
20110;SDS011;10216;42.658;23.248;2023-02-25T17:56:16;13.70;;;4.73;;
20110;SDS011;10216;42.658;23.248;2023-02-25T17:58:43;10.67;;;5.20;;
20110;SDS011;10216;42.658;23.248;2023-02-25T18:01:17;17.37;;;5.40;;
20110;SDS011;10216;42.658;23.248;2023-02-25T18:03:44;13.97;;;6.23;;
20110;SDS011;10216;42.658;23.248;2023-02-25T18:06:26;16.20;;;6.07;;
20110;SDS011;10216;42.658;23.248;2023-02-25T18:08:54;18.63;;;6.10;;
20110;SDS011;10216;42.658;23.248;2023-02-25T18:11:23;14.20;;;5.47;;
20110;SDS011;10216;42.658;23.248;2023-02-25T18:13:49;16.37;;;5.80;;
20110;SDS011;10216;42.658;23.248;2023-02-25T18:18:49;17.47;;;5.40;;
20110;SDS011;10216;42.658;23.248;2023-02-25T18:21:14;15.10;;;6.20;;
20110;SDS011;10216;42.658;23.248;2023-02-25T18:23:40;8.50;;;4.33;;
20110;SDS011;10216;42.658;23.248;2023-02-25T18:26:10;14.43;;;5.10;;
20110;SDS011;10216;42.658;23.248;2023-02-25T18:28:36;11.70;;;5.53;;
20110;SDS011;10216;42.658;23.248;2023-02-25T18:31:02;12.40;;;5.90;;
20110;SDS011;10216;42.658;23.248;2023-02-25T18:33:28;11.83;;;4.57;;